Sigas Ingrid — VRCQ6 — position and weather

sailwx.info

Track history (hours):
 
Tides and Currents Weather Stations Pressure Air Temp Water Temp Dewpoint Dewpoint Depression Visibility Wind Speed Wind Dir Waves Ship Positions

Sigas Ingrid

Last reported at 2015-Jan-31 10:32 UTC. Time now 2015-Jan-31 14:43 UTC.
Position N 43°09' E 009°15'.

Length 100 m; draft 5.7 m.

Type: Ship (hazmat cat B). MMSI: 477658800.

Date/timePositionNaut miles runAvg speedWind from/ knotsBaromVisibWave heightAir tempDewpointWater temp
2015-Jan-31 10:32N 43°09' E 009°15'14 9.7
2015-Jan-31 09:06N 43°07' E 009°34'214 8.6
2015-Jan-30 08:08N 40°27' E 012°43'190 9.7
2015-Jan-29 12:26N 38°17' E 015°42'910.0
2015-Jan-29 11:33N 38°10' E 015°37'1111.0
2015-Jan-29 10:33N 37°59' E 015°36'  
2015-Jan-23 15:07N 32°44' E 029°25'712.1
2015-Jan-23 14:33N 32°40' E 029°33'1411.6
2015-Jan-23 13:20N 32°34' E 029°48'911.0
2015-Jan-23 12:31N 32°32' E 029°58'14410.8
2015-Jan-22 23:13N 31°14' E 032°21'4 6.7
2015-Jan-22 22:33N 31°09' E 032°19'10 9.8
2015-Jan-22 21:32N 30°60' E 032°19'1110.7
2015-Jan-22 20:33N 30°49' E 032°19'14 9.7
2015-Jan-22 19:06N 30°35' E 032°18'  
Track history (hours):
 
Tides and Currents Weather Stations Pressure Air Temp Water Temp Dewpoint Dewpoint Depression Visibility Wind Speed Wind Dir Waves Ship Positions

Sigas Ingrid

Last reported at 2015-Jan-31 10:32 UTC. Time now 2015-Jan-31 14:43 UTC.
Position N 43°09' E 009°15'.

Length 100 m; draft 5.7 m.

Type: Ship (hazmat cat B). MMSI: 477658800.

Date/timePositionNaut miles runAvg speedWind from/ knotsBaromVisibWave heightAir tempDewpointWater temp
2015-Jan-31 10:32N 43°09' E 009°15'14 9.7
2015-Jan-31 09:06N 43°07' E 009°34'214 8.6
2015-Jan-30 08:08N 40°27' E 012°43'190 9.7
2015-Jan-29 12:26N 38°17' E 015°42'910.0
2015-Jan-29 11:33N 38°10' E 015°37'1111.0
2015-Jan-29 10:33N 37°59' E 015°36'  
2015-Jan-23 15:07N 32°44' E 029°25'712.1
2015-Jan-23 14:33N 32°40' E 029°33'1411.6
2015-Jan-23 13:20N 32°34' E 029°48'911.0
2015-Jan-23 12:31N 32°32' E 029°58'14410.8
2015-Jan-22 23:13N 31°14' E 032°21'4 6.7
2015-Jan-22 22:33N 31°09' E 032°19'10 9.8
2015-Jan-22 21:32N 30°60' E 032°19'1110.7
2015-Jan-22 20:33N 30°49' E 032°19'14 9.7
2015-Jan-22 19:06N 30°35' E 032°18'  

Dump ship's entire track history